This is the latest recevied weather packets stored in our database for station/object JE4YKI-13. If no packets are shown the sender has not sent any weather packets the latest 10 day(s).
| Time | Temp. | Humidity | Pressure | Rain* | Wind** | Luminosity | Snow |
|---|---|---|---|---|---|---|---|
| 1778025643 | 16.67° C | 62% | 1019.4 hPa | 0 mm | - | - | - |
| 1778025042 | 16.67° C | 63% | 1019.4 hPa | 0 mm | - | - | - |
| 1778024441 | 16.67° C | 64% | 1019.5 hPa | 0 mm | - | - | - |
| 1778023841 | 16.11° C | 63% | 1019.6 hPa | 0 mm | - | - | - |
| 1778023241 | 16.11° C | 66% | 1019.4 hPa | 0 mm | - | - | - |
| 1778022640 | 16.11° C | 68% | 1019.6 hPa | 0 mm | - | - | - |
| 1778022040 | 16.11° C | 68% | 1019.5 hPa | 0 mm | - | - | - |
| 1778020839 | 16.11° C | 68% | 1019.7 hPa | 0 mm | - | - | - |
| 1778020238 | 16.11° C | 68% | 1019.4 hPa | 0 mm | - | - | - |
| 1778019637 | 15.56° C | 71% | 1019.5 hPa | 0 mm | - | - | - |
| 1778019038 | 14.44° C | 73% | 1019.7 hPa | 0 mm | - | - | - |
| 1778018435 | 13.33° C | 77% | 1019.8 hPa | 0 mm | - | - | - |
| 1778017836 | 13.33° C | 76% | 1019.8 hPa | 0 mm | - | - | - |
| 1778017235 | 12.78° C | 78% | 1019.6 hPa | 0 mm | - | - | - |
| 1778016634 | 12.78° C | 77% | 1019.6 hPa | 0 mm | - | - | - |
| 1778016034 | 13.33° C | 74% | 1019.3 hPa | 0 mm | - | - | - |
| 1778015434 | 12.78° C | 78% | 1019.4 hPa | 0 mm | - | - | - |
| 1778014833 | 12.22° C | 79% | 1019.4 hPa | 0 mm | - | - | - |
| 1778014233 | 12.22° C | 80% | 1019.4 hPa | 0 mm | - | - | - |
| 1778013633 | 12.22° C | 80% | 1019.2 hPa | 0 mm | - | - | - |
| 1778013032 | 12.22° C | 79% | 1019.2 hPa | 0 mm | - | - | - |
| 1778012432 | 12.22° C | 78% | 1019 hPa | 0 mm | - | - | - |
| 1778011832 | 11.67° C | 81% | 1018.9 hPa | 0 mm | - | - | - |
| 1778011231 | 11.67° C | 80% | 1018.8 hPa | 0 mm | - | - | - |
| 1778010631 | 12.22° C | 80% | 1018.8 hPa | 0 mm | - | - | - |
* Rain latest hour (hover to see other rain measurements)
** Current wind speed in m/s (hover to see current wind gust speed)